Time;durP1;ratioP1;P1;durP2;ratioP2;P2;SDS_P1;SDS_P2;PMS_P1;PMS_P2;Temp;Humidity;BMP_temperature;BMP_pressure;BME280_temperature;BME280_humidity;BME280_pressure;Samples;Min_cycle;Max_cycle;Signal;HPM_P1;HPM_P2
2023/12/10 00:00:23;;;;;;;8.85;1.73;;;;;;;;;;5073454;28;20467;-55
2023/12/10 00:02:50;;;;;;;11.48;1.98;;;;;;;;;;5073474;28;20453;-55
2023/12/10 00:05:17;;;;;;;6.65;1.40;;;;;;;;;;5073237;28;20372;-55
2023/12/10 00:07:44;;;;;;;8.68;1.40;;;;;;;;;;5073359;28;20376;-55
2023/12/10 00:10:11;;;;;;;6.00;1.60;;;;;;;;;;5073114;28;20379;-56
2023/12/10 00:12:40;;;;;;;6.87;1.60;;;;;;;;;;5073307;28;20368;-55
2023/12/10 00:15:07;;;;;;;7.60;1.50;;;;;;;;;;5073078;28;20482;-56
2023/12/10 00:17:34;;;;;;;6.00;1.60;;;;;;;;;;5073104;28;20451;-57
2023/12/10 00:20:01;;;;;;;8.27;1.63;;;;;;;;;;5072998;28;20383;-56
2023/12/10 00:22:28;;;;;;;6.30;1.50;;;;;;;;;;5072674;28;20403;-55
2023/12/10 00:24:55;;;;;;;9.33;1.60;;;;;;;;;;5072293;28;20430;-56
2023/12/10 00:27:22;;;;;;;7.68;1.80;;;;;;;;;;5073027;28;20376;-56
2023/12/10 00:29:49;;;;;;;4.72;1.30;;;;;;;;;;5072670;28;20422;-54
2023/12/10 00:32:16;;;;;;;7.70;1.48;;;;;;;;;;5072958;28;20368;-55
2023/12/10 00:34:43;;;;;;;6.88;1.50;;;;;;;;;;5054725;28;20974;-54
2023/12/10 00:37:10;;;;;;;5.10;1.48;;;;;;;;;;5054800;28;20388;-56
2023/12/10 00:39:37;;;;;;;4.70;1.33;;;;;;;;;;5072727;28;20384;-56
2023/12/10 00:42:04;;;;;;;4.23;0.97;;;;;;;;;;5072743;28;20372;-56
2023/12/10 00:44:31;;;;;;;6.47;1.77;;;;;;;;;;5072551;28;20411;-56
2023/12/10 00:46:58;;;;;;;5.10;1.25;;;;;;;;;;5072607;28;20380;-56
2023/12/10 00:49:25;;;;;;;5.40;1.30;;;;;;;;;;5072555;28;20441;-56
2023/12/10 00:51:52;;;;;;;5.90;1.50;;;;;;;;;;5072543;28;20375;-57
2023/12/10 00:54:19;;;;;;;6.22;1.40;;;;;;;;;;5072498;28;20437;-52
2023/12/10 00:56:46;;;;;;;6.13;1.30;;;;;;;;;;5072483;28;20730;-55
2023/12/10 00:59:14;;;;;;;4.23;1.27;;;;;;;;;;5072209;28;20904;-54
2023/12/10 01:01:41;;;;;;;5.63;1.17;;;;;;;;;;5072274;28;20432;-56
2023/12/10 01:04:08;;;;;;;6.68;1.40;;;;;;;;;;5072298;28;20375;-56
2023/12/10 01:06:35;;;;;;;6.15;1.50;;;;;;;;;;5072313;28;20386;-55
2023/12/10 01:09:02;;;;;;;4.72;1.35;;;;;;;;;;5072143;28;20730;-56
2023/12/10 01:11:29;;;;;;;3.40;1.30;;;;;;;;;;5072147;28;20376;-54
2023/12/10 01:13:57;;;;;;;6.13;1.48;;;;;;;;;;5072069;28;20796;-53
2023/12/10 01:16:24;;;;;;;6.70;1.60;;;;;;;;;;5072064;28;20464;-56
2023/12/10 01:18:51;;;;;;;4.40;1.37;;;;;;;;;;5071844;28;20407;-55
2023/12/10 01:21:18;;;;;;;4.45;1.17;;;;;;;;;;5071984;28;20375;-56
2023/12/10 01:23:45;;;;;;;6.25;1.52;;;;;;;;;;5071834;28;20367;-56
2023/12/10 01:26:14;;;;;;;5.78;1.50;;;;;;;;;;5071863;28;20451;-55
2023/12/10 01:28:41;;;;;;;6.13;1.40;;;;;;;;;;5071355;28;20408;-56
2023/12/10 01:31:08;;;;;;;4.20;1.17;;;;;;;;;;5053774;28;20828;-53
2023/12/10 01:33:35;;;;;;;4.90;1.45;;;;;;;;;;5071735;28;20367;-55
2023/12/10 01:36:02;;;;;;;3.92;1.27;;;;;;;;;;5071306;28;20425;-55
2023/12/10 01:38:29;;;;;;;4.25;1.40;;;;;;;;;;5071466;28;20422;-56
2023/12/10 01:40:56;;;;;;;4.45;1.20;;;;;;;;;;5071538;28;20430;-56
2023/12/10 01:43:23;;;;;;;3.92;1.20;;;;;;;;;;5071537;28;20398;-56
2023/12/10 01:45:54;;;;;;;5.30;1.50;;;;;;;;;;5071457;28;20371;-57
2023/12/10 01:48:23;;;;;;;3.38;1.20;;;;;;;;;;5071288;28;20455;-55
2023/12/10 01:50:50;;;;;;;3.07;1.13;;;;;;;;;;5071231;28;20368;-56
2023/12/10 01:53:17;;;;;;;4.95;1.30;;;;;;;;;;5071383;28;20399;-55
2023/12/10 01:55:45;;;;;;;5.38;1.23;;;;;;;;;;5071286;28;20371;-55
2023/12/10 01:58:13;;;;;;;4.75;1.40;;;;;;;;;;5071048;28;20885;-57
2023/12/10 02:00:40;;;;;;;3.83;1.38;;;;;;;;;;5071044;28;20784;-55
2023/12/10 02:03:07;;;;;;;3.30;1.40;;;;;;;;;;5071325;28;20364;-56
2023/12/10 02:05:35;;;;;;;5.68;1.40;;;;;;;;;;5071038;28;20371;-55
2023/12/10 02:08:02;;;;;;;5.78;1.50;;;;;;;;;;5070969;28;20383;-55
2023/12/10 02:10:30;;;;;;;3.92;1.30;;;;;;;;;;5071061;28;20376;-55
2023/12/10 02:12:57;;;;;;;4.03;1.27;;;;;;;;;;5070974;28;20417;-56
2023/12/10 02:15:28;;;;;;;3.90;1.42;;;;;;;;;;5070998;28;20935;-57
2023/12/10 02:17:55;;;;;;;4.60;1.10;;;;;;;;;;5070636;28;20905;-57
2023/12/10 02:20:22;;;;;;;3.38;1.38;;;;;;;;;;5070873;28;20371;-55
2023/12/10 02:22:52;;;;;;;3.58;1.30;;;;;;;;;;5070834;28;20375;-55
2023/12/10 02:25:39;;;;;;;3.60;1.52;;;;;;;;;;5070844;28;20421;-56
2023/12/10 02:28:07;;;;;;;3.65;1.20;;;;;;;;;;5070516;28;20372;-56
2023/12/10 02:30:35;;;;;;;3.20;1.23;;;;;;;;;;5052737;28;20798;-55
2023/12/10 02:33:02;;;;;;;3.75;1.15;;;;;;;;;;5070611;28;20845;-55
2023/12/10 02:35:29;;;;;;;5.18;1.10;;;;;;;;;;5070560;28;20395;-56
2023/12/10 02:37:56;;;;;;;3.63;1.30;;;;;;;;;;5070577;28;20764;-54
2023/12/10 02:40:23;;;;;;;4.78;1.40;;;;;;;;;;5070675;28;20368;-55
2023/12/10 02:42:50;;;;;;;2.70;1.08;;;;;;;;;;5070667;28;20856;-56
2023/12/10 02:45:17;;;;;;;4.20;1.13;;;;;;;;;;5052453;28;20876;-56
2023/12/10 02:47:44;;;;;;;2.38;1.08;;;;;;;;;;5069747;28;20739;-53
2023/12/10 02:50:11;;;;;;;3.90;1.30;;;;;;;;;;5070564;28;20470;-57
2023/12/10 02:52:39;;;;;;;3.43;1.30;;;;;;;;;;5070594;28;20378;-56
2023/12/10 02:55:06;;;;;;;2.55;1.15;;;;;;;;;;5070564;28;20461;-56
2023/12/10 02:57:33;;;;;;;4.07;1.27;;;;;;;;;;5070334;28;20408;-55
2023/12/10 03:00:00;;;;;;;2.50;1.13;;;;;;;;;;5070474;28;20880;-54
2023/12/10 03:02:27;;;;;;;3.95;1.20;;;;;;;;;;5070504;28;20848;-55
2023/12/10 03:04:54;;;;;;;3.08;1.13;;;;;;;;;;5070411;28;20371;-55
2023/12/10 03:07:21;;;;;;;2.70;1.20;;;;;;;;;;5070431;28;20372;-56
2023/12/10 03:09:48;;;;;;;4.63;1.23;;;;;;;;;;5070270;28;20384;-57
2023/12/10 03:12:15;;;;;;;2.83;1.10;;;;;;;;;;5052269;28;20376;-56
2023/12/10 03:14:42;;;;;;;3.00;1.17;;;;;;;;;;5070595;28;20845;-53
2023/12/10 03:17:09;;;;;;;2.97;1.00;;;;;;;;;;5070254;28;20876;-55
2023/12/10 03:19:38;;;;;;;2.30;1.00;;;;;;;;;;5070203;28;20391;-56
2023/12/10 03:22:05;;;;;;;2.63;0.95;;;;;;;;;;5069982;28;20384;-56
2023/12/10 03:24:32;;;;;;;2.75;1.13;;;;;;;;;;5070237;28;20467;-54
2023/12/10 03:26:59;;;;;;;3.43;1.10;;;;;;;;;;5070201;28;21269;-56
2023/12/10 03:29:26;;;;;;;3.15;1.10;;;;;;;;;;5069855;28;20411;-55
2023/12/10 03:31:53;;;;;;;3.42;1.00;;;;;;;;;;5070166;28;20425;-55
2023/12/10 03:34:20;;;;;;;2.47;1.07;;;;;;;;;;5070052;28;20360;-55
2023/12/10 03:36:47;;;;;;;3.63;0.90;;;;;;;;;;5070165;28;20424;-55
2023/12/10 03:39:14;;;;;;;2.75;1.00;;;;;;;;;;5069919;28;20430;-55
2023/12/10 03:41:41;;;;;;;2.85;1.10;;;;;;;;;;5070024;28;20368;-56
2023/12/10 03:44:08;;;;;;;2.40;1.00;;;;;;;;;;5070348;28;20724;-56
2023/12/10 03:46:35;;;;;;;2.38;1.10;;;;;;;;;;5069944;28;20367;-57
2023/12/10 03:49:02;;;;;;;3.33;1.00;;;;;;;;;;5069923;28;20375;-56
2023/12/10 03:51:29;;;;;;;2.83;1.10;;;;;;;;;;5069935;28;20810;-56
2023/12/10 03:53:56;;;;;;;3.25;1.00;;;;;;;;;;5069934;28;20368;-57
2023/12/10 03:56:22;;;;;;;2.77;1.00;;;;;;;;;;5069808;28;20376;-55
2023/12/10 03:58:49;;;;;;;2.10;0.90;;;;;;;;;;5072422;28;20980;-55
2023/12/10 04:01:17;;;;;;;1.92;0.93;;;;;;;;;;5073532;28;20401;-54
2023/12/10 04:03:44;;;;;;;2.78;0.98;;;;;;;;;;5073444;28;20368;-57
2023/12/10 04:06:11;;;;;;;3.90;1.00;;;;;;;;;;5073425;28;20420;-56
2023/12/10 04:08:38;;;;;;;3.00;1.00;;;;;;;;;;5073250;28;20865;-55
2023/12/10 04:11:05;;;;;;;2.80;0.98;;;;;;;;;;5073306;28;20863;-55
2023/12/10 04:13:32;;;;;;;2.30;0.90;;;;;;;;;;5073245;28;21082;-57
2023/12/10 04:16:02;;;;;;;2.08;0.82;;;;;;;;;;5073230;28;20398;-56
2023/12/10 04:18:29;;;;;;;1.50;0.80;;;;;;;;;;5073006;28;20494;-55
2023/12/10 04:20:56;;;;;;;3.13;0.98;;;;;;;;;;5073124;28;20372;-56
2023/12/10 04:23:23;;;;;;;1.67;0.80;;;;;;;;;;5072922;28;20371;-56
2023/12/10 04:25:50;;;;;;;3.25;0.95;;;;;;;;;;5073077;28;20459;-55
2023/12/10 04:28:17;;;;;;;3.03;1.00;;;;;;;;;;5072686;28;20739;-56
2023/12/10 04:30:44;;;;;;;4.20;1.00;;;;;;;;;;5072984;28;20853;-55
2023/12/10 04:33:11;;;;;;;2.33;0.90;;;;;;;;;;5072934;28;20850;-54
2023/12/10 04:35:38;;;;;;;2.67;0.82;;;;;;;;;;5072844;28;20375;-55
2023/12/10 04:38:05;;;;;;;1.08;0.77;;;;;;;;;;5072734;28;20399;-54
2023/12/10 04:40:32;;;;;;;2.95;0.82;;;;;;;;;;5072830;28;20368;-55
2023/12/10 04:42:59;;;;;;;1.67;0.80;;;;;;;;;;5072795;28;20430;-54
2023/12/10 04:45:26;;;;;;;2.30;0.90;;;;;;;;;;5072777;28;20372;-56
2023/12/10 04:47:53;;;;;;;1.80;0.80;;;;;;;;;;5072570;28;20376;-54
2023/12/10 04:50:20;;;;;;;2.30;0.95;;;;;;;;;;5072570;28;20383;-56
2023/12/10 04:52:47;;;;;;;2.80;0.90;;;;;;;;;;5072606;28;20897;-55
2023/12/10 04:55:14;;;;;;;1.85;0.80;;;;;;;;;;5072570;28;20990;-56
2023/12/10 04:57:41;;;;;;;1.40;0.63;;;;;;;;;;5072378;28;20407;-56
2023/12/10 05:00:08;;;;;;;1.65;0.80;;;;;;;;;;5072353;28;20378;-52
2023/12/10 05:02:35;;;;;;;1.83;0.70;;;;;;;;;;5072430;28;20372;-55
2023/12/10 05:05:02;;;;;;;2.10;1.00;;;;;;;;;;5072360;28;20372;-56
2023/12/10 05:07:29;;;;;;;2.42;0.90;;;;;;;;;;5072475;28;20407;-53
2023/12/10 05:09:57;;;;;;;1.83;0.70;;;;;;;;;;5071577;28;20938;-54
2023/12/10 05:12:24;;;;;;;2.00;0.70;;;;;;;;;;5072040;28;20390;-56
2023/12/10 05:14:51;;;;;;;1.73;0.85;;;;;;;;;;5054195;28;20458;-56
2023/12/10 05:17:18;;;;;;;2.05;0.82;;;;;;;;;;5071999;28;20372;-55
2023/12/10 05:19:45;;;;;;;1.52;0.70;;;;;;;;;;5071951;28;20376;-56
2023/12/10 05:22:12;;;;;;;1.83;0.67;;;;;;;;;;5071995;28;20432;-56
2023/12/10 05:24:40;;;;;;;2.30;0.80;;;;;;;;;;5071855;28;20377;-52
2023/12/10 05:27:07;;;;;;;1.80;0.80;;;;;;;;;;5071830;28;20367;-55
2023/12/10 05:29:34;;;;;;;2.70;0.80;;;;;;;;;;5071578;28;20412;-54
2023/12/10 05:32:01;;;;;;;1.70;0.90;;;;;;;;;;5071805;28;20368;-57
2023/12/10 05:34:28;;;;;;;2.30;0.88;;;;;;;;;;5071754;28;20384;-53
2023/12/10 05:36:55;;;;;;;2.03;0.65;;;;;;;;;;5071708;28;20395;-55
2023/12/10 05:39:22;;;;;;;2.22;0.80;;;;;;;;;;5071501;28;20885;-55
2023/12/10 05:41:49;;;;;;;1.60;0.80;;;;;;;;;;5071626;28;20378;-54
2023/12/10 05:44:16;;;;;;;1.20;0.60;;;;;;;;;;5071621;28;20451;-54
2023/12/10 05:46:44;;;;;;;2.30;0.80;;;;;;;;;;5071576;28;20378;-53
2023/12/10 05:49:11;;;;;;;2.28;0.77;;;;;;;;;;5071246;28;20372;-55
2023/12/10 05:51:38;;;;;;;2.20;0.80;;;;;;;;;;5071454;28;20387;-56
2023/12/10 05:54:05;;;;;;;1.50;0.90;;;;;;;;;;5071350;28;20375;-53
2023/12/10 05:56:32;;;;;;;2.00;0.90;;;;;;;;;;5071356;28;20443;-53
2023/12/10 05:59:01;;;;;;;1.40;0.63;;;;;;;;;;5071397;28;20399;-53
2023/12/10 06:01:28;;;;;;;1.60;0.90;;;;;;;;;;5063085;28;20427;-54
2023/12/10 06:03:55;;;;;;;2.38;0.68;;;;;;;;;;5051278;28;20863;-55
2023/12/10 06:06:22;;;;;;;2.63;0.70;;;;;;;;;;5051195;28;20848;-53
2023/12/10 06:08:49;;;;;;;1.43;0.73;;;;;;;;;;5051068;28;20447;-55
2023/12/10 06:11:16;;;;;;;2.28;0.80;;;;;;;;;;5050995;28;20377;-53
2023/12/10 06:13:43;;;;;;;1.30;0.70;;;;;;;;;;5051091;28;20377;-52
2023/12/10 06:16:10;;;;;;;1.13;0.60;;;;;;;;;;5051094;28;20416;-55
2023/12/10 06:18:37;;;;;;;1.48;0.77;;;;;;;;;;5050857;28;20467;-52
2023/12/10 06:21:04;;;;;;;1.65;0.70;;;;;;;;;;5050012;28;20369;-54
2023/12/10 06:23:31;;;;;;;2.00;0.82;;;;;;;;;;5050885;28;20375;-55
2023/12/10 06:25:58;;;;;;;1.20;0.70;;;;;;;;;;5050841;28;20377;-56
2023/12/10 06:28:25;;;;;;;2.25;0.80;;;;;;;;;;5050642;28;20497;-53
2023/12/10 06:33:18;;;;;;;2.25;0.90;;;;;;;;;;5228840;22;20438;-54
2023/12/10 06:35:45;;;;;;;1.63;0.70;;;;;;;;;;5091068;28;20771;-52
2023/12/10 06:38:12;;;;;;;2.10;0.70;;;;;;;;;;5090809;28;20455;-54
2023/12/10 06:40:39;;;;;;;1.98;0.70;;;;;;;;;;5090842;28;20370;-53
2023/12/10 06:43:07;;;;;;;1.80;0.70;;;;;;;;;;5090762;28;20450;-52
2023/12/10 06:45:34;;;;;;;2.60;0.98;;;;;;;;;;5090721;28;20861;-53
2023/12/10 06:48:01;;;;;;;1.40;0.63;;;;;;;;;;5090921;28;20374;-54
2023/12/10 06:50:28;;;;;;;2.25;0.80;;;;;;;;;;5072562;28;20485;-51
2023/12/10 06:52:55;;;;;;;1.30;0.70;;;;;;;;;;5090665;28;20851;-53
2023/12/10 06:55:21;;;;;;;1.48;0.73;;;;;;;;;;5090744;28;20378;-56
2023/12/10 06:57:48;;;;;;;1.92;0.70;;;;;;;;;;5090663;28;20408;-54
2023/12/10 07:00:18;;;;;;;1.30;0.70;;;;;;;;;;5090717;28;20374;-53
2023/12/10 07:02:45;;;;;;;1.53;0.70;;;;;;;;;;5090468;28;20415;-54
2023/12/10 07:05:11;;;;;;;1.77;0.70;;;;;;;;;;5090729;28;20874;-53
2023/12/10 07:07:39;;;;;;;1.48;0.68;;;;;;;;;;5090651;28;20481;-53
2023/12/10 07:10:06;;;;;;;1.27;0.60;;;;;;;;;;5090622;28;20370;-53
2023/12/10 07:12:33;;;;;;;1.75;0.80;;;;;;;;;;5090360;28;20840;-51
2023/12/10 07:15:00;;;;;;;1.30;0.60;;;;;;;;;;5090450;28;20370;-55
2023/12/10 07:17:27;;;;;;;1.10;0.60;;;;;;;;;;5090384;28;20476;-56
2023/12/10 07:19:54;;;;;;;2.15;0.68;;;;;;;;;;5090721;28;20382;-50
2023/12/10 07:22:21;;;;;;;1.30;0.60;;;;;;;;;;5090312;28;20366;-53
2023/12/10 07:24:48;;;;;;;1.27;0.50;;;;;;;;;;5090380;28;20362;-51
2023/12/10 07:27:15;;;;;;;1.05;0.73;;;;;;;;;;5090400;28;20867;-51
2023/12/10 07:29:42;;;;;;;1.52;0.70;;;;;;;;;;5090284;28;20462;-53
2023/12/10 07:32:09;;;;;;;1.13;0.60;;;;;;;;;;5090331;28;20410;-51
2023/12/10 07:34:36;;;;;;;1.50;0.70;;;;;;;;;;5094354;28;20481;-54
2023/12/10 07:37:03;;;;;;;1.65;0.70;;;;;;;;;;5094202;28;20369;-51
2023/12/10 07:39:30;;;;;;;1.27;0.70;;;;;;;;;;5094284;28;20401;-52
2023/12/10 07:41:58;;;;;;;1.40;0.70;;;;;;;;;;5094170;28;20377;-54
2023/12/10 07:44:25;;;;;;;1.40;0.60;;;;;;;;;;5094105;28;20464;-51
2023/12/10 07:46:52;;;;;;;1.45;0.68;;;;;;;;;;5094113;28;20378;-50
2023/12/10 07:49:19;;;;;;;1.85;0.70;;;;;;;;;;5094116;28;20787;-53
2023/12/10 07:51:46;;;;;;;1.02;0.60;;;;;;;;;;5093956;28;20769;-53
2023/12/10 07:54:13;;;;;;;1.10;0.60;;;;;;;;;;5093843;28;20362;-52
2023/12/10 07:56:40;;;;;;;1.73;0.55;;;;;;;;;;5093959;28;20370;-51
2023/12/10 07:59:07;;;;;;;2.05;0.60;;;;;;;;;;5093712;28;20754;-54
2023/12/10 08:01:34;;;;;;;2.17;0.70;;;;;;;;;;5093692;28;20747;-50
2023/12/10 08:04:01;;;;;;;1.45;0.60;;;;;;;;;;5093737;28;20415;-52
2023/12/10 08:06:30;;;;;;;1.85;0.68;;;;;;;;;;5093692;28;20374;-53
2023/12/10 08:08:57;;;;;;;1.88;0.60;;;;;;;;;;5093419;28;20374;-53
2023/12/10 08:11:24;;;;;;;1.37;0.50;;;;;;;;;;5093331;28;20385;-53
2023/12/10 08:13:51;;;;;;;1.55;0.60;;;;;;;;;;5093648;28;20366;-52
2023/12/10 08:16:18;;;;;;;1.80;0.70;;;;;;;;;;5093602;28;20770;-50
2023/12/10 08:18:45;;;;;;;0.75;0.50;;;;;;;;;;5093464;28;20406;-50
2023/12/10 08:21:14;;;;;;;1.13;0.57;;;;;;;;;;5093369;28;20439;-50
2023/12/10 08:23:41;;;;;;;1.40;0.70;;;;;;;;;;5093346;28;20423;-54
2023/12/10 08:26:08;;;;;;;1.75;0.68;;;;;;;;;;5093473;28;20453;-52
2023/12/10 08:28:35;;;;;;;0.90;0.70;;;;;;;;;;5093334;28;20402;-51
2023/12/10 08:31:02;;;;;;;1.17;0.60;;;;;;;;;;5075121;28;20383;-53
2023/12/10 08:33:29;;;;;;;1.50;0.70;;;;;;;;;;5093091;28;20406;-51
2023/12/10 08:35:56;;;;;;;0.70;0.50;;;;;;;;;;5093261;28;20374;-51
2023/12/10 08:38:23;;;;;;;0.95;0.50;;;;;;;;;;5093095;28;20954;-50
2023/12/10 08:40:50;;;;;;;1.80;0.70;;;;;;;;;;5093174;28;20366;-50
2023/12/10 08:43:20;;;;;;;1.10;0.70;;;;;;;;;;5092855;28;20843;-51
2023/12/10 08:45:47;;;;;;;0.90;0.50;;;;;;;;;;5091799;28;20864;-50
2023/12/10 08:48:14;;;;;;;0.85;0.50;;;;;;;;;;5092995;28;20377;-50
2023/12/10 08:50:41;;;;;;;1.40;0.60;;;;;;;;;;5092900;28;20457;-53
2023/12/10 08:53:08;;;;;;;2.10;0.60;;;;;;;;;;5092868;28;20366;-53
2023/12/10 08:55:35;;;;;;;1.50;0.60;;;;;;;;;;5092852;28;20378;-52
2023/12/10 08:58:02;;;;;;;1.00;0.60;;;;;;;;;;5092722;28;20510;-53
2023/12/10 09:00:28;;;;;;;1.10;0.50;;;;;;;;;;5092712;28;20362;-52
2023/12/10 09:02:55;;;;;;;1.40;0.80;;;;;;;;;;5092607;28;20395;-51
2023/12/10 09:05:22;;;;;;;1.00;0.70;;;;;;;;;;5092683;28;20945;-50
2023/12/10 09:07:50;;;;;;;1.42;0.60;;;;;;;;;;5092579;28;20743;-53
2023/12/10 09:10:17;;;;;;;1.00;0.50;;;;;;;;;;5092399;28;20377;-53
2023/12/10 09:12:44;;;;;;;1.10;0.60;;;;;;;;;;5092247;28;20445;-51
2023/12/10 09:15:11;;;;;;;1.10;0.60;;;;;;;;;;5092472;28;20781;-51
2023/12/10 09:17:38;;;;;;;1.55;0.50;;;;;;;;;;5092296;28;20850;-54
2023/12/10 09:20:05;;;;;;;1.40;0.43;;;;;;;;;;5092375;28;20381;-50
2023/12/10 09:22:32;;;;;;;1.58;0.70;;;;;;;;;;5092246;28;20370;-54
2023/12/10 09:24:59;;;;;;;0.70;0.50;;;;;;;;;;5092227;28;20894;-51
2023/12/10 09:27:26;;;;;;;1.20;0.57;;;;;;;;;;5092446;28;20366;-52
2023/12/10 09:29:53;;;;;;;1.05;0.55;;;;;;;;;;5092060;28;20445;-53
2023/12/10 09:32:23;;;;;;;1.25;0.50;;;;;;;;;;5091799;28;20418;-52
2023/12/10 09:34:50;;;;;;;1.40;0.50;;;;;;;;;;5091862;28;20377;-51
2023/12/10 09:37:18;;;;;;;1.27;0.60;;;;;;;;;;5091989;28;20375;-54
2023/12/10 09:39:44;;;;;;;1.00;0.50;;;;;;;;;;5091904;28;20416;-50
2023/12/10 09:42:12;;;;;;;1.97;0.50;;;;;;;;;;5092105;28;20806;-51
2023/12/10 09:44:39;;;;;;;1.90;0.70;;;;;;;;;;5091761;28;20923;-53
2023/12/10 09:47:09;;;;;;;2.10;0.50;;;;;;;;;;5091789;28;20370;-50
2023/12/10 09:49:40;;;;;;;1.20;0.50;;;;;;;;;;5091704;28;20783;-50
2023/12/10 09:52:07;;;;;;;2.17;0.70;;;;;;;;;;5091553;28;20814;-53
2023/12/10 09:54:34;;;;;;;1.20;0.60;;;;;;;;;;5091684;28;20370;-51
2023/12/10 09:57:01;;;;;;;1.95;0.60;;;;;;;;;;5091314;28;20390;-52
2023/12/10 09:59:28;;;;;;;0.82;0.50;;;;;;;;;;5091493;28;20962;-52
2023/12/10 10:01:55;;;;;;;0.95;0.55;;;;;;;;;;5091343;28;20375;-51
2023/12/10 10:04:22;;;;;;;1.00;0.50;;;;;;;;;;5091451;28;20400;-52
2023/12/10 10:06:49;;;;;;;0.82;0.50;;;;;;;;;;5091423;28;20738;-51
2023/12/10 10:09:16;;;;;;;0.80;0.50;;;;;;;;;;5091356;28;20397;-52
2023/12/10 10:11:50;;;;;;;1.63;0.70;;;;;;;;;;5091313;28;20401;-51
2023/12/10 10:14:20;;;;;;;1.20;0.52;;;;;;;;;;5091318;28;20362;-53
2023/12/10 10:16:48;;;;;;;1.20;0.70;;;;;;;;;;5091254;28;20370;-53
2023/12/10 10:19:16;;;;;;;2.10;0.60;;;;;;;;;;5091109;28;20409;-54
2023/12/10 10:21:44;;;;;;;2.00;0.50;;;;;;;;;;5091124;28;20869;-54
2023/12/10 10:24:11;;;;;;;1.20;0.65;;;;;;;;;;5091063;28;20422;-53
2023/12/10 10:26:39;;;;;;;1.10;0.50;;;;;;;;;;5091067;28;20369;-54
2023/12/10 10:29:07;;;;;;;1.25;0.68;;;;;;;;;;5090988;28;20799;-54
2023/12/10 10:31:34;;;;;;;1.80;0.57;;;;;;;;;;5090771;28;20870;-52
2023/12/10 10:34:05;;;;;;;1.80;0.60;;;;;;;;;;5091097;28;20843;-53
2023/12/10 10:36:32;;;;;;;0.80;0.50;;;;;;;;;;5091059;28;20366;-55
2023/12/10 10:38:59;;;;;;;1.58;0.50;;;;;;;;;;5090876;28;20902;-54
2023/12/10 10:41:26;;;;;;;1.35;0.52;;;;;;;;;;5090794;28;20370;-52
2023/12/10 10:43:56;;;;;;;1.75;0.60;;;;;;;;;;5090894;28;20369;-54
2023/12/10 10:46:24;;;;;;;1.67;0.70;;;;;;;;;;5090731;28;20427;-53
2023/12/10 10:48:54;;;;;;;1.30;0.70;;;;;;;;;;5090848;28;20426;-53
2023/12/10 10:51:26;;;;;;;1.67;0.70;;;;;;;;;;5090700;28;20436;-53
2023/12/10 10:53:54;;;;;;;2.08;0.70;;;;;;;;;;5090784;28;20374;-53
2023/12/10 10:56:22;;;;;;;1.02;0.50;;;;;;;;;;5090799;28;20910;-52
2023/12/10 10:58:49;;;;;;;1.10;0.60;;;;;;;;;;5090658;28;20442;-53
2023/12/10 11:01:34;;;;;;;1.58;0.55;;;;;;;;;;5090604;28;20374;-52
2023/12/10 11:04:01;;;;;;;1.42;0.52;;;;;;;;;;5090890;28;20378;-53
2023/12/10 11:06:28;;;;;;;1.65;0.50;;;;;;;;;;5090531;28;20370;-53
2023/12/10 11:08:56;;;;;;;0.93;0.50;;;;;;;;;;5093816;28;20436;-53
2023/12/10 11:11:26;;;;;;;0.77;0.50;;;;;;;;;;5094757;28;20455;-52
2023/12/10 11:13:54;;;;;;;1.20;0.55;;;;;;;;;;5094844;28;20380;-52
2023/12/10 11:16:24;;;;;;;1.95;0.55;;;;;;;;;;5094753;28;20367;-51
2023/12/10 11:18:55;;;;;;;0.93;0.55;;;;;;;;;;5094621;28;20898;-54
2023/12/10 11:21:22;;;;;;;1.43;0.60;;;;;;;;;;5094635;28;20366;-53
2023/12/10 11:23:48;;;;;;;1.20;0.50;;;;;;;;;;5094595;28;20377;-51
2023/12/10 11:26:15;;;;;;;0.98;0.60;;;;;;;;;;5094548;28;20457;-53
2023/12/10 11:28:43;;;;;;;1.30;0.50;;;;;;;;;;5094540;28;20370;-52
2023/12/10 11:31:10;;;;;;;1.20;0.70;;;;;;;;;;5094398;28;20374;-51
2023/12/10 11:33:41;;;;;;;1.00;0.50;;;;;;;;;;5094264;28;20480;-51
2023/12/10 11:36:09;;;;;;;1.60;0.70;;;;;;;;;;5094394;28;20453;-51
2023/12/10 11:38:36;;;;;;;1.17;0.60;;;;;;;;;;5076072;28;20764;-54
2023/12/10 11:41:03;;;;;;;1.50;0.67;;;;;;;;;;5094073;28;20735;-53
2023/12/10 11:43:30;;;;;;;1.30;0.50;;;;;;;;;;5094247;28;20442;-50
2023/12/10 11:45:57;;;;;;;1.30;0.50;;;;;;;;;;5094176;28;20771;-53
2023/12/10 11:48:25;;;;;;;1.10;0.60;;;;;;;;;;5094119;28;20378;-51
2023/12/10 11:50:52;;;;;;;0.95;0.50;;;;;;;;;;5093867;28;20806;-53
2023/12/10 11:53:19;;;;;;;0.70;0.40;;;;;;;;;;5094018;28;20390;-51
2023/12/10 11:55:48;;;;;;;2.42;0.70;;;;;;;;;;5093991;28;20378;-50
2023/12/10 11:58:15;;;;;;;0.98;0.50;;;;;;;;;;5093710;28;20405;-54
2023/12/10 12:00:57;;;;;;;1.00;0.50;;;;;;;;;;5093797;28;20400;-53
2023/12/10 12:03:24;;;;;;;1.07;0.50;;;;;;;;;;5093707;28;20773;-53
2023/12/10 12:05:52;;;;;;;1.05;0.43;;;;;;;;;;5093721;28;20731;-51
2023/12/10 12:08:19;;;;;;;1.90;0.60;;;;;;;;;;5093806;28;20374;-52
2023/12/10 12:10:46;;;;;;;0.70;0.40;;;;;;;;;;5093387;28;20720;-51
2023/12/10 12:13:13;;;;;;;1.10;0.55;;;;;;;;;;5093723;28;20354;-51
2023/12/10 12:15:44;;;;;;;0.88;0.40;;;;;;;;;;5093664;28;20431;-50
2023/12/10 12:18:12;;;;;;;3.42;0.50;;;;;;;;;;5093442;28;20397;-51
2023/12/10 12:20:39;;;;;;;1.15;0.50;;;;;;;;;;5093420;28;20422;-51
2023/12/10 12:23:06;;;;;;;0.98;0.43;;;;;;;;;;5093477;28;20369;-53
2023/12/10 12:25:39;;;;;;;1.52;0.65;;;;;;;;;;5093475;28;20370;-53
2023/12/10 12:28:07;;;;;;;1.80;0.70;;;;;;;;;;5093373;28;20424;-52
2023/12/10 12:30:34;;;;;;;1.15;0.40;;;;;;;;;;5093249;28;20374;-53
2023/12/10 12:33:01;;;;;;;2.28;0.57;;;;;;;;;;5093114;28;20409;-53
2023/12/10 12:35:29;;;;;;;1.80;0.60;;;;;;;;;;5093255;28;20457;-51
2023/12/10 12:37:56;;;;;;;1.60;0.60;;;;;;;;;;5093124;28;20397;-50
2023/12/10 12:40:23;;;;;;;1.90;0.57;;;;;;;;;;5093176;28;20378;-53
2023/12/10 12:42:50;;;;;;;3.00;0.60;;;;;;;;;;5074752;28;20362;-51
2023/12/10 12:45:20;;;;;;;1.40;0.55;;;;;;;;;;5093058;28;20366;-52
2023/12/10 12:47:48;;;;;;;1.73;0.55;;;;;;;;;;5093081;28;20788;-53
2023/12/10 12:50:16;;;;;;;1.10;0.60;;;;;;;;;;5092810;28;20373;-52
2023/12/10 12:52:43;;;;;;;1.65;0.50;;;;;;;;;;5092779;28;20378;-52
2023/12/10 12:55:10;;;;;;;1.65;0.50;;;;;;;;;;5092764;28;20413;-50
2023/12/10 12:57:37;;;;;;;3.90;0.52;;;;;;;;;;5092726;28;20374;-50
2023/12/10 13:00:05;;;;;;;1.35;0.50;;;;;;;;;;5092745;28;20370;-53
2023/12/10 13:02:32;;;;;;;1.20;0.50;;;;;;;;;;5092586;28;20401;-50
2023/12/10 13:04:59;;;;;;;1.40;0.40;;;;;;;;;;5074415;28;20370;-52
2023/12/10 13:07:26;;;;;;;1.75;0.57;;;;;;;;;;5092582;28;20366;-51
2023/12/10 13:09:53;;;;;;;1.80;0.70;;;;;;;;;;5092519;28;20386;-53
2023/12/10 13:12:21;;;;;;;1.00;0.40;;;;;;;;;;5092413;28;20389;-52
2023/12/10 13:14:48;;;;;;;2.03;0.60;;;;;;;;;;5092719;28;20383;-53
2023/12/10 13:17:15;;;;;;;0.90;0.50;;;;;;;;;;5092345;28;20889;-52
2023/12/10 13:19:42;;;;;;;1.33;0.55;;;;;;;;;;5092299;28;20398;-49
2023/12/10 13:22:09;;;;;;;1.10;0.50;;;;;;;;;;5092545;28;20736;-54
2023/12/10 13:24:37;;;;;;;2.63;0.60;;;;;;;;;;5092516;28;20463;-51
2023/12/10 13:27:04;;;;;;;1.70;0.63;;;;;;;;;;5092259;28;20461;-53
2023/12/10 13:29:31;;;;;;;1.13;0.50;;;;;;;;;;5092162;28;20393;-54
2023/12/10 13:31:58;;;;;;;1.53;0.50;;;;;;;;;;5073121;28;20422;-51
2023/12/10 13:34:25;;;;;;;2.40;0.50;;;;;;;;;;5091882;28;20370;-53
2023/12/10 13:36:52;;;;;;;1.30;0.60;;;;;;;;;;5092071;28;20416;-50
2023/12/10 13:39:20;;;;;;;1.40;0.40;;;;;;;;;;5092001;28;20408;-51
2023/12/10 13:41:47;;;;;;;3.35;0.45;;;;;;;;;;5091996;28;20453;-51
2023/12/10 13:44:14;;;;;;;2.10;0.50;;;;;;;;;;5091832;28;20785;-50
2023/12/10 13:46:41;;;;;;;1.08;0.47;;;;;;;;;;5091761;28;20878;-51
2023/12/10 13:49:08;;;;;;;1.02;0.50;;;;;;;;;;5091742;28;20370;-50
2023/12/10 13:51:35;;;;;;;1.27;0.60;;;;;;;;;;5091632;28;20405;-50
2023/12/10 13:54:02;;;;;;;1.47;0.40;;;;;;;;;;5091664;28;20843;-52
2023/12/10 13:56:29;;;;;;;1.35;0.57;;;;;;;;;;5091677;28;20406;-52
2023/12/10 13:58:56;;;;;;;1.60;0.40;;;;;;;;;;5091567;28;20909;-50
2023/12/10 14:01:24;;;;;;;2.22;0.60;;;;;;;;;;5091834;28;20397;-50
2023/12/10 14:03:52;;;;;;;1.48;0.50;;;;;;;;;;5091414;28;20903;-50
2023/12/10 14:06:19;;;;;;;2.97;0.50;;;;;;;;;;5091513;28;20855;-50
2023/12/10 14:08:46;;;;;;;0.90;0.50;;;;;;;;;;5091516;28;20466;-52
2023/12/10 14:11:13;;;;;;;0.98;0.50;;;;;;;;;;5091323;28;20378;-54
2023/12/10 14:13:40;;;;;;;1.40;0.50;;;;;;;;;;5091374;28;20921;-53
2023/12/10 14:16:07;;;;;;;1.30;0.50;;;;;;;;;;5091279;28;20378;-53
2023/12/10 14:18:34;;;;;;;1.67;0.50;;;;;;;;;;5091038;28;20412;-54
2023/12/10 14:21:01;;;;;;;1.35;0.45;;;;;;;;;;5091151;28;20449;-54
2023/12/10 14:23:28;;;;;;;1.40;0.40;;;;;;;;;;5091219;28;20374;-54
2023/12/10 14:25:55;;;;;;;1.27;0.40;;;;;;;;;;5091066;28;20788;-55
2023/12/10 14:28:22;;;;;;;0.90;0.40;;;;;;;;;;5091146;28;20370;-53
2023/12/10 14:30:49;;;;;;;1.50;0.40;;;;;;;;;;5091010;28;20377;-52
2023/12/10 14:33:16;;;;;;;1.02;0.45;;;;;;;;;;5090924;28;20398;-53
2023/12/10 14:35:43;;;;;;;1.33;0.50;;;;;;;;;;5090972;28;20417;-55
2023/12/10 14:38:11;;;;;;;1.67;0.50;;;;;;;;;;5090857;28;20405;-55
2023/12/10 14:40:38;;;;;;;0.40;0.30;;;;;;;;;;5090693;28;20804;-51
2023/12/10 14:43:05;;;;;;;1.45;0.45;;;;;;;;;;5089955;28;20409;-54
2023/12/10 14:45:32;;;;;;;3.65;0.60;;;;;;;;;;5090882;28;20374;-52